Time;durP1;ratioP1;P1;durP2;ratioP2;P2;SDS_P1;SDS_P2;PMS_P1;PMS_P2;Temp;Humidity;BMP_temperature;BMP_pressure;BME280_temperature;BME280_humidity;BME280_pressure;Samples;Min_cycle;Max_cycle;Signal;HPM_P1;HPM_P2
2021/08/04 00:02:19;;;;;;;9.35;5.30;;;;;;;19.60;76.88;100117.86;1746956;82;22699;-81
2021/08/04 00:05:24;;;;;;;11.60;6.00;;;;;;;19.60;76.64;100116.48;1747220;82;21331;-80
2021/08/04 00:08:29;;;;;;;7.35;5.05;;;;;;;19.59;76.40;100127.24;1745767;82;21399;-81
2021/08/04 00:11:34;;;;;;;15.13;4.42;;;;;;;19.58;76.08;100119.47;1745876;82;21501;-81
2021/08/04 00:14:40;;;;;;;9.88;4.35;;;;;;;19.59;75.77;100125.86;1747149;82;21300;-81
2021/08/04 00:17:45;;;;;;;8.25;4.60;;;;;;;19.58;75.45;100123.62;1747132;82;21296;-80
2021/08/04 00:20:53;;;;;;;8.00;4.85;;;;;;;19.58;75.24;100122.79;1746565;82;21134;-80
2021/08/04 00:23:59;;;;;;;9.53;4.70;;;;;;;19.57;75.13;100123.84;1746795;82;21915;-81
2021/08/04 00:27:04;;;;;;;8.63;5.00;;;;;;;19.57;74.91;100131.66;1747171;82;21301;-81
2021/08/04 00:30:10;;;;;;;7.85;4.55;;;;;;;19.58;74.77;100136.11;1746782;82;21771;-80
2021/08/04 00:33:15;;;;;;;11.05;4.87;;;;;;;19.59;74.66;100136.41;1747156;82;21308;-81
2021/08/04 00:36:20;;;;;;;9.10;4.58;;;;;;;19.60;74.59;100139.52;1747349;82;21304;-80
2021/08/04 00:39:25;;;;;;;12.40;5.10;;;;;;;19.61;74.51;100146.73;1745436;82;21386;-81
2021/08/04 00:42:32;;;;;;;10.00;5.92;;;;;;;19.59;74.54;100152.21;1746943;82;21866;-81
2021/08/04 00:45:38;;;;;;;12.37;5.28;;;;;;;19.53;75.29;100155.41;1747169;82;21197;-81
2021/08/04 00:48:45;;;;;;;11.48;5.70;;;;;;;19.46;75.70;100152.42;1732803;82;21169;-81
2021/08/04 00:51:51;;;;;;;13.55;6.15;;;;;;;19.40;75.74;100152.30;1745861;82;21744;-80
2021/08/04 00:54:56;;;;;;;13.68;5.03;;;;;;;19.38;75.92;100146.67;1746448;82;21320;-80
2021/08/04 00:58:02;;;;;;;17.40;5.95;;;;;;;19.36;76.07;100146.08;1747192;82;21875;-81
2021/08/04 01:01:18;;;;;;;15.25;5.90;;;;;;;19.33;76.23;100150.16;1746339;82;21308;-80
2021/08/04 01:04:32;;;;;;;11.75;5.25;;;;;;;19.31;76.38;100156.50;1747087;82;21540;-81
2021/08/04 01:07:47;;;;;;;12.35;5.87;;;;;;;19.29;76.54;100153.13;1746925;82;21260;-81
2021/08/04 01:11:00;;;;;;;12.15;5.62;;;;;;;19.27;76.52;100155.27;1746143;82;21351;-80
2021/08/04 01:14:05;;;;;;;10.78;5.75;;;;;;;19.25;76.58;100159.39;1746980;82;21185;-80
2021/08/04 01:17:11;;;;;;;11.57;4.97;;;;;;;19.22;76.47;100165.39;1732520;82;21304;-84
2021/08/04 01:20:20;;;;;;;14.00;6.17;;;;;;;19.20;76.43;100168.95;1746961;82;21300;-81
2021/08/04 01:23:53;;;;;;;11.18;6.58;;;;;;;19.18;76.51;100173.33;1747171;82;21344;-81
2021/08/04 01:26:58;;;;;;;13.08;6.12;;;;;;;19.17;76.59;100168.03;1746920;82;21233;-80
2021/08/04 01:30:04;;;;;;;9.08;5.70;;;;;;;19.15;76.54;100171.89;1747057;82;21173;-81
2021/08/04 01:33:09;;;;;;;11.45;6.60;;;;;;;19.12;76.44;100171.51;1746845;82;21288;-80
2021/08/04 01:36:18;;;;;;;15.05;6.58;;;;;;;19.08;76.49;100177.22;1747184;82;21241;-81
2021/08/04 01:39:23;;;;;;;13.58;6.80;;;;;;;19.04;76.60;100181.53;1747320;82;21340;-80
2021/08/04 01:42:29;;;;;;;14.25;6.90;;;;;;;19.00;76.71;100178.92;1746033;82;21857;-81
2021/08/04 01:45:35;;;;;;;13.93;6.85;;;;;;;18.95;76.83;100178.23;1747224;82;21729;-81
2021/08/04 01:48:41;;;;;;;12.85;7.00;;;;;;;18.91;76.85;100178.40;1746972;82;21273;-80
2021/08/04 01:51:47;;;;;;;16.07;6.47;;;;;;;18.86;76.85;100175.48;1732222;82;21351;-80
2021/08/04 01:54:52;;;;;;;14.95;7.12;;;;;;;18.83;76.93;100178.75;1747047;82;21729;-80
2021/08/04 01:57:58;;;;;;;14.95;6.55;;;;;;;18.79;77.07;100170.05;1747037;82;21352;-81
2021/08/04 02:01:03;;;;;;;12.55;6.90;;;;;;;18.75;77.05;100175.74;1746903;82;21367;-80
2021/08/04 02:04:09;;;;;;;11.20;6.83;;;;;;;18.71;77.13;100174.52;1747253;82;21376;-80
2021/08/04 02:07:14;;;;;;;12.82;6.60;;;;;;;18.63;76.76;100181.72;1745654;82;21189;-81
2021/08/04 02:10:24;;;;;;;23.02;8.05;;;;;;;18.48;77.05;100175.19;1747033;82;21360;-81
2021/08/04 02:13:55;;;;;;;14.30;7.62;;;;;;;18.38;77.83;100176.27;1746114;81;21197;-81
2021/08/04 02:17:13;;;;;;;17.15;8.10;;;;;;;18.36;78.34;100180.67;1746243;82;21372;-81
2021/08/04 02:20:22;;;;;;;14.47;7.65;;;;;;;18.36;78.60;100183.98;1747295;82;21363;-81
2021/08/04 02:23:29;;;;;;;;;;;;;;;18.38;78.72;100188.73;1748410;82;21299;-81
2021/08/04 02:26:34;;;;;;;17.85;8.55;;;;;;;18.41;78.71;100184.67;1747180;82;20680;-80
2021/08/04 02:29:42;;;;;;;14.07;7.65;;;;;;;18.42;78.62;100191.90;1747165;82;21348;-80
2021/08/04 02:32:47;;;;;;;12.18;7.85;;;;;;;18.44;78.50;100194.72;1746045;82;21744;-80
2021/08/04 02:35:53;;;;;;;15.72;7.72;;;;;;;18.44;78.36;100192.50;1745681;82;21173;-80
2021/08/04 02:39:01;;;;;;;20.97;8.63;;;;;;;18.48;78.13;100197.34;1747752;82;21228;-80
2021/08/04 02:42:07;;;;;;;18.27;9.08;;;;;;;18.54;77.94;100204.75;1742341;81;21862;-81
2021/08/04 02:45:14;;;;;;;17.73;8.85;;;;;;;18.55;77.64;100206.44;1737775;82;21193;-80
2021/08/04 02:48:21;;;;;;;26.17;8.75;;;;;;;18.58;77.53;100212.91;1739437;82;21304;-81
2021/08/04 02:51:29;;;;;;;21.07;8.40;;;;;;;18.73;77.25;100214.47;1737918;82;21800;-81
2021/08/04 02:54:36;;;;;;;17.65;8.25;;;;;;;19.01;76.57;100211.97;1739328;82;21530;-80
2021/08/04 02:57:43;;;;;;;21.93;7.95;;;;;;;19.36;75.30;100217.64;1737613;81;21724;-81
2021/08/04 03:00:49;;;;;;;15.03;7.67;;;;;;;19.72;74.00;100220.55;1738854;82;21840;-80
2021/08/04 03:03:55;;;;;;;17.65;8.40;;;;;;;20.01;72.70;100220.16;1737898;82;21224;-80
2021/08/04 03:07:02;;;;;;;17.07;8.40;;;;;;;20.27;71.51;100222.44;1737982;82;21728;-80
2021/08/04 03:10:08;;;;;;;19.87;8.50;;;;;;;20.53;70.42;100225.30;1739196;82;21178;-82
2021/08/04 03:13:15;;;;;;;15.30;7.83;;;;;;;20.76;69.36;100232.75;1738596;82;21230;-81
2021/08/04 03:16:21;;;;;;;18.75;8.80;;;;;;;20.98;68.34;100242.64;1739067;82;21359;-80
2021/08/04 03:19:26;;;;;;;16.70;7.85;;;;;;;21.22;67.53;100243.95;1739098;82;21304;-81
2021/08/04 03:22:31;;;;;;;13.85;8.05;;;;;;;21.48;66.67;100244.78;1739057;82;21210;-81
2021/08/04 03:25:37;;;;;;;15.00;8.18;;;;;;;21.72;65.70;100247.44;1739123;82;21792;-81
2021/08/04 03:28:42;;;;;;;20.00;8.18;;;;;;;21.86;65.05;100249.64;1737688;82;21342;-80
2021/08/04 03:31:47;;;;;;;16.30;8.30;;;;;;;21.94;64.49;100249.78;1737711;82;21836;-80
2021/08/04 03:34:53;;;;;;;16.20;8.63;;;;;;;22.01;64.41;100253.23;1739184;82;22530;-81
2021/08/04 03:37:58;;;;;;;18.23;8.30;;;;;;;22.10;64.03;100251.70;1737869;82;21308;-80
2021/08/04 03:41:03;;;;;;;13.95;7.90;;;;;;;22.24;63.53;100253.63;1737674;82;21355;-80
2021/08/04 03:44:09;;;;;;;16.77;7.03;;;;;;;22.38;63.09;100252.73;1743912;82;21224;-80
2021/08/04 03:47:15;;;;;;;12.07;7.35;;;;;;;22.53;62.81;100251.56;1746837;82;21759;-81
2021/08/04 03:50:20;;;;;;;19.92;7.90;;;;;;;22.68;62.65;100250.41;1747013;82;21720;-81
2021/08/04 03:53:26;;;;;;;12.45;7.87;;;;;;;22.85;62.33;100251.73;1746031;82;21311;-81
2021/08/04 03:56:31;;;;;;;20.20;8.00;;;;;;;23.01;61.72;100254.74;1746340;82;21328;-81
2021/08/04 03:59:36;;;;;;;13.88;7.75;;;;;;;23.10;61.64;100253.18;1747029;82;21201;-81
2021/08/04 04:02:42;;;;;;;15.50;7.40;;;;;;;23.16;61.38;100264.16;1747050;82;21709;-81
2021/08/04 04:05:49;;;;;;;12.82;8.10;;;;;;;23.16;61.00;100271.69;1746911;82;21256;-80
2021/08/04 04:08:54;;;;;;;13.48;7.58;;;;;;;23.07;60.96;100270.46;1732366;82;21368;-80
2021/08/04 04:12:01;;;;;;;13.80;8.03;;;;;;;23.03;61.26;100271.52;1745726;81;21137;-81
2021/08/04 04:15:08;;;;;;;20.32;7.85;;;;;;;23.04;61.24;100272.36;1745507;82;21752;-81
2021/08/04 04:18:13;;;;;;;19.42;8.30;;;;;;;23.05;61.62;100274.88;1746877;82;21173;-81
2021/08/04 04:21:18;;;;;;;14.35;7.00;;;;;;;23.06;61.77;100276.59;1746950;82;21181;-81
2021/08/04 04:24:24;;;;;;;15.38;6.60;;;;;;;23.10;61.62;100279.69;1746326;82;21699;-81
2021/08/04 04:27:29;;;;;;;22.15;8.30;;;;;;;23.14;61.57;100281.69;1747159;82;21732;-81
2021/08/04 04:30:35;;;;;;;14.83;7.00;;;;;;;23.23;61.86;100282.08;1747085;82;21354;-81
2021/08/04 04:33:40;;;;;;;11.20;6.72;;;;;;;23.35;61.59;100284.75;1747019;82;21331;-81
2021/08/04 04:36:46;;;;;;;16.93;7.12;;;;;;;23.44;61.43;100281.79;1747160;82;21277;-81
2021/08/04 04:39:52;;;;;;;11.08;5.83;;;;;;;23.55;61.11;100284.97;1745797;82;21374;-81
2021/08/04 04:42:58;;;;;;;11.20;5.97;;;;;;;23.65;60.56;100290.69;1745332;82;21315;-81
2021/08/04 04:46:05;;;;;;;11.88;5.45;;;;;;;23.79;60.50;100285.53;1748975;82;21220;-81
2021/08/04 04:49:11;;;;;;;11.03;5.22;;;;;;;23.95;58.76;100290.73;1749057;82;21216;-81
2021/08/04 04:52:17;;;;;;;9.68;4.97;;;;;;;24.04;57.43;100296.64;1749108;82;21197;-81
2021/08/04 04:55:23;;;;;;;10.38;4.75;;;;;;;24.08;57.29;100292.22;1750714;80;21256;-81
2021/08/04 04:58:28;;;;;;;8.03;4.70;;;;;;;24.07;57.37;100294.17;1778868;80;22543;-81
2021/08/04 05:01:34;;;;;;;6.62;3.92;;;;;;;24.09;57.52;100285.51;1743476;82;21331;-81
2021/08/04 05:04:39;;;;;;;12.13;4.30;;;;;;;24.15;57.45;100295.09;1779938;80;21275;-81
2021/08/04 05:07:43;;;;;;;9.10;4.22;;;;;;;24.18;56.42;100295.96;1722421;82;21195;-81
2021/08/04 05:10:49;;;;;;;6.75;3.95;;;;;;;24.25;56.77;100296.28;1780928;80;21335;-81
2021/08/04 05:13:55;;;;;;;5.35;3.27;;;;;;;24.36;55.62;100303.62;1743059;82;21208;-81
2021/08/04 05:16:59;;;;;;;4.83;3.20;;;;;;;24.41;56.11;100298.94;1778592;80;21933;-81
2021/08/04 05:20:05;;;;;;;5.50;3.22;;;;;;;24.49;55.76;100300.41;1778165;80;21267;-81
2021/08/04 05:23:12;;;;;;;7.20;3.08;;;;;;;24.54;55.32;100307.44;1777869;80;21295;-81
2021/08/04 05:26:18;;;;;;;7.37;3.62;;;;;;;24.66;54.91;100305.30;1775536;79;21402;-81
2021/08/04 05:29:24;;;;;;;6.47;3.67;;;;;;;24.73;54.94;100300.28;1776102;79;21232;-81
2021/08/04 05:32:29;;;;;;;8.28;3.80;;;;;;;24.80;54.35;100300.63;1737458;82;21133;-80
2021/08/04 05:35:35;;;;;;;9.30;4.12;;;;;;;24.87;54.30;100296.45;1775961;80;21432;-81
2021/08/04 05:38:40;;;;;;;4.40;2.52;;;;;;;25.01;54.07;100299.61;1773618;80;21220;-80
2021/08/04 05:41:46;;;;;;;9.75;3.25;;;;;;;25.22;53.86;100305.63;1771591;80;21799;-80
2021/08/04 05:44:52;;;;;;;3.72;2.47;;;;;;;25.27;53.24;100296.97;1774598;80;21304;-82
2021/08/04 05:47:57;;;;;;;8.10;2.90;;;;;;;25.25;53.14;100297.23;1781290;80;21743;-81
2021/08/04 05:51:03;;;;;;;7.35;2.60;;;;;;;25.29;53.66;100303.96;1779479;80;21557;-81
2021/08/04 05:54:08;;;;;;;8.20;2.52;;;;;;;25.35;53.73;100306.22;1743537;82;21286;-80
2021/08/04 05:57:13;;;;;;;5.55;2.47;;;;;;;25.47;53.33;100300.67;1718603;83;21253;-81
2021/08/04 06:00:19;;;;;;;5.22;2.72;;;;;;;25.56;53.11;100291.74;1735862;81;21878;-81
2021/08/04 06:03:24;;;;;;;6.37;2.85;;;;;;;25.63;52.89;100293.70;1736831;82;21365;-80
2021/08/04 06:06:32;;;;;;;4.10;2.80;;;;;;;25.74;53.05;100296.27;1732040;82;21295;-81
2021/08/04 06:09:37;;;;;;;8.93;2.42;;;;;;;25.84;52.10;100307.24;1735994;82;21865;-80
2021/08/04 06:12:42;;;;;;;3.12;2.47;;;;;;;25.87;51.34;100302.46;1732333;82;21349;-80
2021/08/04 06:15:47;;;;;;;7.58;2.30;;;;;;;25.91;52.83;100304.99;1735145;82;21521;-80
2021/08/04 06:18:53;;;;;;;5.78;2.58;;;;;;;26.06;50.74;100308.37;1736063;82;21866;-80
2021/08/04 06:21:59;;;;;;;6.87;2.67;;;;;;;26.13;51.12;100320.16;1715397;83;22047;-80
2021/08/04 06:25:06;;;;;;;7.12;2.15;;;;;;;26.19;50.76;100322.67;1715741;83;21324;-81
2021/08/04 06:28:12;;;;;;;2.98;1.77;;;;;;;26.34;50.18;100333.05;1699603;84;21344;-80
2021/08/04 06:31:19;;;;;;;4.37;1.70;;;;;;;26.45;48.09;100333.38;1720704;83;21582;-80
2021/08/04 06:34:24;;;;;;;2.00;1.65;;;;;;;26.52;47.84;100332.24;1717468;83;21337;-80
2021/08/04 06:37:30;;;;;;;2.08;1.20;;;;;;;26.59;46.64;100335.62;1737370;82;21300;-82
2021/08/04 06:40:34;;;;;;;1.62;1.30;;;;;;;26.67;46.53;100335.86;1736734;82;21307;-82
2021/08/04 06:43:41;;;;;;;5.80;1.85;;;;;;;26.71;45.90;100332.77;1735472;82;21303;-81
2021/08/04 06:46:47;;;;;;;2.40;1.50;;;;;;;26.75;46.12;100332.49;1730137;82;21245;-81
2021/08/04 06:49:52;;;;;;;2.12;1.57;;;;;;;26.80;45.33;100332.21;1726632;82;21712;-81
2021/08/04 06:52:58;;;;;;;3.67;1.60;;;;;;;26.86;44.71;100333.30;1722909;82;21358;-81
2021/08/04 06:56:03;;;;;;;2.05;1.40;;;;;;;26.94;44.71;100336.11;1727345;82;21327;-81
2021/08/04 06:59:10;;;;;;;3.77;1.10;;;;;;;26.98;44.78;100338.63;1727830;82;21323;-80
2021/08/04 07:02:16;;;;;;;2.10;1.50;;;;;;;27.07;43.95;100332.70;1722755;82;21300;-80
2021/08/04 07:05:24;;;;;;;4.87;1.07;;;;;;;27.09;44.60;100322.63;1728542;82;22411;-80
2021/08/04 07:08:31;;;;;;;2.80;1.22;;;;;;;27.08;42.60;100328.80;1723976;82;21542;-80
2021/08/04 07:11:36;;;;;;;2.08;0.88;;;;;;;27.11;42.92;100322.63;1703985;82;21320;-80
2021/08/04 07:14:41;;;;;;;2.52;1.02;;;;;;;27.12;41.76;100318.69;1726099;82;21344;-80
2021/08/04 07:17:53;;;;;;;2.10;1.10;;;;;;;27.12;42.32;100328.52;1723302;82;21201;-79
2021/08/04 07:20:59;;;;;;;0.93;0.88;;;;;;;27.16;41.80;100319.80;1720111;82;21349;-80
2021/08/04 07:24:05;;;;;;;1.22;1.10;;;;;;;27.21;42.58;100325.95;1728381;81;21291;-80
2021/08/04 07:27:10;;;;;;;1.47;1.00;;;;;;;27.25;40.60;100326.50;1725708;82;21305;-80
2021/08/04 07:30:17;;;;;;;7.70;1.10;;;;;;;27.24;40.28;100323.96;1730932;82;21316;-80
2021/08/04 07:33:23;;;;;;;1.52;0.90;;;;;;;27.23;40.20;100315.27;1726818;82;21824;-81
2021/08/04 07:36:28;;;;;;;1.62;1.07;;;;;;;27.30;40.33;100322.00;1723140;82;21854;-80
2021/08/04 07:39:34;;;;;;;1.45;1.30;;;;;;;27.34;40.23;100332.37;1727349;82;21863;-80
2021/08/04 07:42:40;;;;;;;4.42;1.27;;;;;;;27.30;40.39;100331.83;1728324;81;21819;-79
2021/08/04 07:45:45;;;;;;;1.40;0.88;;;;;;;27.43;39.94;100329.78;1731509;82;21177;-80
2021/08/04 07:48:50;;;;;;;0.85;0.82;;;;;;;27.51;38.90;100335.64;1723286;83;21287;-80
2021/08/04 07:52:11;;;;;;;2.37;1.00;;;;;;;27.47;38.47;100343.53;1714857;83;22412;-80
2021/08/04 07:55:17;;;;;;;3.25;0.93;;;;;;;27.40;39.02;100349.47;1726083;82;21830;-80
2021/08/04 07:58:23;;;;;;;3.45;0.98;;;;;;;27.48;38.60;100350.85;1706185;82;21217;-80
2021/08/04 08:01:28;;;;;;;2.22;0.90;;;;;;;27.59;38.58;100340.40;1703184;83;21343;-80
2021/08/04 08:04:34;;;;;;;2.12;1.20;;;;;;;27.64;36.77;100330.53;1705693;84;21173;-80
2021/08/04 08:07:40;;;;;;;1.40;0.95;;;;;;;27.64;37.84;100329.97;1697708;83;21352;-80
2021/08/04 08:10:49;;;;;;;1.70;1.12;;;;;;;27.78;37.80;100319.53;1725566;82;21378;-80
2021/08/04 08:13:55;;;;;;;1.47;1.10;;;;;;;27.92;37.38;100316.34;1728734;82;21185;-80
2021/08/04 08:17:02;;;;;;;1.47;1.20;;;;;;;27.96;36.94;100320.26;1738766;82;21327;-80
2021/08/04 08:20:08;;;;;;;2.58;0.90;;;;;;;27.91;37.54;100330.97;1706223;83;21180;-80
2021/08/04 08:23:13;;;;;;;4.70;1.20;;;;;;;27.93;36.25;100326.45;1707437;83;21318;-80
2021/08/04 08:26:19;;;;;;;2.15;0.90;;;;;;;27.93;37.62;100318.02;1709764;83;21342;-80
2021/08/04 08:29:25;;;;;;;2.77;1.17;;;;;;;27.90;37.46;100318.59;1710403;83;21612;-80
2021/08/04 08:32:30;;;;;;;2.47;0.93;;;;;;;27.87;36.70;100314.98;1702513;82;21283;-80
2021/08/04 08:35:36;;;;;;;1.65;1.10;;;;;;;27.95;38.50;100309.59;1711195;83;21796;-80
2021/08/04 08:38:42;;;;;;;1.85;1.10;;;;;;;27.96;37.36;100314.07;1705518;83;21337;-80
2021/08/04 08:41:47;;;;;;;3.75;1.30;;;;;;;27.98;36.61;100306.73;1701790;82;21257;-80
2021/08/04 08:44:55;;;;;;;2.33;1.10;;;;;;;28.06;36.55;100306.13;1691228;83;21301;-80
2021/08/04 08:48:01;;;;;;;4.35;1.10;;;;;;;28.15;37.59;100310.56;1710493;83;21316;-80
2021/08/04 08:51:07;;;;;;;3.35;1.20;;;;;;;28.10;37.43;100304.41;1709084;83;21206;-80
2021/08/04 08:54:13;;;;;;;1.52;0.90;;;;;;;28.11;37.63;100304.67;1707174;83;21300;-80
2021/08/04 08:57:19;;;;;;;1.37;0.82;;;;;;;28.18;36.65;100305.73;1710072;83;21308;-80
2021/08/04 09:00:24;;;;;;;0.93;0.80;;;;;;;28.25;36.26;100304.28;1722972;81;21340;-80
2021/08/04 09:03:30;;;;;;;4.30;1.05;;;;;;;28.39;35.30;100314.89;1727255;82;21162;-80
2021/08/04 09:06:55;;;;;;;1.67;1.10;;;;;;;28.44;34.09;100308.64;1731266;82;21776;-80
2021/08/04 09:10:00;;;;;;;3.17;1.20;;;;;;;28.52;34.90;100315.05;1730639;82;21189;-80
2021/08/04 09:13:08;;;;;;;2.75;1.10;;;;;;;28.59;34.42;100320.32;1733297;82;21161;-80
2021/08/04 09:16:21;;;;;;;3.60;1.00;;;;;;;28.71;35.12;100318.53;1723091;83;21288;-81
2021/08/04 09:19:29;;;;;;;2.95;1.00;;;;;;;28.71;35.12;100318.53;1717284;82;21859;-80
2021/08/04 09:22:34;;;;;;;1.12;1.00;;;;;;;28.73;35.93;100311.45;1737733;82;21244;-81
2021/08/04 09:25:39;;;;;;;4.80;1.25;;;;;;;28.73;35.93;100311.45;1735553;82;21256;-81
2021/08/04 09:29:13;;;;;;;1.87;1.20;;;;;;;28.88;35.69;100306.23;1730409;82;21286;-81
2021/08/04 09:32:26;;;;;;;5.37;1.12;;;;;;;28.88;35.69;100306.23;1731935;82;21320;-81
2021/08/04 09:35:31;;;;;;;3.40;1.00;;;;;;;28.93;36.12;100303.35;1735118;82;21221;-80
2021/08/04 09:38:36;;;;;;;5.75;1.40;;;;;;;29.01;36.18;100299.09;1735053;82;21252;-80
2021/08/04 09:41:41;;;;;;;3.15;1.35;;;;;;;29.01;36.18;100299.09;1732826;82;21326;-80
2021/08/04 09:45:06;;;;;;;5.00;1.22;;;;;;;29.03;36.77;100292.61;1729691;82;21783;-80
2021/08/04 09:48:16;;;;;;;1.60;1.30;;;;;;;29.02;37.29;100292.31;1721113;83;21179;-80
2021/08/04 09:51:26;;;;;;;2.17;1.37;;;;;;;28.94;37.21;100297.18;1690292;83;21772;-80
2021/08/04 09:54:33;;;;;;;2.55;1.22;;;;;;;28.72;37.17;100278.83;1690905;84;21326;-79
2021/08/04 09:57:50;;;;;;;2.02;1.12;;;;;;;28.72;37.17;100278.83;1652389;84;21312;-80
2021/08/04 10:00:58;;;;;;;2.00;1.40;;;;;;;28.48;37.66;100291.45;1679606;84;21229;-80
2021/08/04 10:04:12;;;;;;;2.27;1.30;;;;;;;28.46;37.31;100284.43;1665309;85;21371;-79
2021/08/04 10:07:19;;;;;;;2.47;1.35;;;;;;;28.46;37.31;100284.43;1699802;83;21720;-79
2021/08/04 10:10:24;;;;;;;2.15;1.20;;;;;;;28.53;37.49;100284.37;1663875;84;21871;-80
2021/08/04 10:13:36;;;;;;;1.95;1.10;;;;;;;28.60;37.91;100288.80;1667144;84;21207;-80
2021/08/04 10:16:43;;;;;;;2.45;1.42;;;;;;;28.69;36.88;100281.39;1668753;84;21215;-80
2021/08/04 10:19:50;;;;;;;6.08;1.27;;;;;;;28.76;37.15;100279.08;1664464;85;21145;-80
2021/08/04 10:22:55;;;;;;;1.40;1.30;;;;;;;28.86;37.07;100278.13;1674076;85;21848;-80
2021/08/04 10:26:03;;;;;;;3.37;1.22;;;;;;;28.99;36.23;100280.27;1672998;85;21280;-80
2021/08/04 10:29:12;;;;;;;2.10;1.15;;;;;;;28.97;36.29;100278.30;1677252;85;21345;-80
2021/08/04 10:32:17;;;;;;;1.45;1.10;;;;;;;28.94;35.85;100278.88;1679343;84;21203;-79
2021/08/04 10:35:23;;;;;;;2.30;1.30;;;;;;;28.94;35.85;100278.88;1664008;84;21257;-80
2021/08/04 10:38:30;;;;;;;3.47;1.17;;;;;;;29.07;35.64;100273.94;1676217;85;21764;-80
2021/08/04 10:41:37;;;;;;;2.60;1.17;;;;;;;29.07;35.64;100273.94;1671306;84;21280;-80
2021/08/04 10:44:44;;;;;;;2.12;1.40;;;;;;;29.12;36.08;100272.47;1647274;85;21323;-80
2021/08/04 10:47:53;;;;;;;4.00;1.10;;;;;;;29.09;35.34;100265.22;1688282;84;21368;-80
2021/08/04 10:51:19;;;;;;;4.17;1.20;;;;;;;28.99;35.41;100256.33;1709425;82;21925;-80
2021/08/04 10:54:24;;;;;;;4.40;1.35;;;;;;;28.83;36.39;100261.82;1728421;82;21296;-80
2021/08/04 10:57:28;;;;;;;2.77;1.20;;;;;;;28.66;36.75;100265.13;1728396;82;21319;-81
2021/08/04 11:00:34;;;;;;;4.97;1.25;;;;;;;28.61;36.65;100261.80;1730062;81;21323;-81
2021/08/04 11:03:46;;;;;;;2.10;1.20;;;;;;;28.47;36.31;100260.81;1729249;82;21853;-80
2021/08/04 11:07:20;;;;;;;2.10;1.10;;;;;;;28.41;36.38;100264.80;1733442;82;21367;-81
2021/08/04 11:10:27;;;;;;;3.10;1.37;;;;;;;28.38;36.08;100267.64;1670561;84;21196;-80
2021/08/04 11:14:01;;;;;;;1.60;1.20;;;;;;;28.49;36.21;100271.19;1717724;83;21178;-80
2021/08/04 11:17:10;;;;;;;3.25;1.25;;;;;;;28.64;36.44;100261.18;1727999;83;21360;-80
2021/08/04 11:20:16;;;;;;;8.58;1.50;;;;;;;28.89;36.65;100259.20;1722376;83;21284;-80
2021/08/04 11:23:22;;;;;;;4.00;1.12;;;;;;;28.78;36.78;100263.55;1723081;83;21197;-80
2021/08/04 11:26:43;;;;;;;3.45;1.10;;;;;;;28.61;36.65;100263.20;1718810;83;21206;-81
2021/08/04 11:29:54;;;;;;;1.62;1.10;;;;;;;28.61;36.65;100263.20;1725348;83;21327;-80
2021/08/04 11:33:21;;;;;;;1.67;1.10;;;;;;;28.39;36.89;100258.06;1727557;83;21575;-80
2021/08/04 11:36:36;;;;;;;1.60;1.32;;;;;;;28.35;36.71;100254.16;1724725;83;21185;-80
2021/08/04 11:39:42;;;;;;;2.77;1.25;;;;;;;28.40;36.60;100249.89;1730552;83;21339;-80
2021/08/04 11:42:47;;;;;;;2.90;1.27;;;;;;;28.44;36.45;100250.98;1725111;83;21331;-80
2021/08/04 11:45:53;;;;;;;2.90;1.20;;;;;;;28.49;35.61;100252.91;1730601;83;21903;-80
2021/08/04 11:48:59;;;;;;;2.40;1.10;;;;;;;28.58;35.76;100254.51;1716648;83;21291;-80
2021/08/04 11:52:16;;;;;;;1.60;1.10;;;;;;;28.69;34.61;100249.86;1709128;81;21240;-80
2021/08/04 11:55:24;;;;;;;3.00;1.40;;;;;;;28.76;35.29;100255.99;1705912;83;21204;-80
2021/08/04 11:58:29;;;;;;;2.62;1.27;;;;;;;28.77;35.34;100251.20;1686517;83;21190;-80
2021/08/04 12:01:35;;;;;;;1.95;1.07;;;;;;;28.74;34.04;100256.84;1719482;82;21221;-80
2021/08/04 12:04:51;;;;;;;3.08;1.37;;;;;;;28.67;35.00;100251.31;1712261;82;21191;-80
2021/08/04 12:07:57;;;;;;;4.92;1.27;;;;;;;28.66;35.22;100249.08;1718865;82;21359;-80
2021/08/04 12:11:04;;;;;;;3.58;1.35;;;;;;;28.72;35.95;100250.69;1729185;82;21284;-80
2021/08/04 12:14:13;;;;;;;1.98;1.30;;;;;;;28.70;36.08;100246.48;1747431;82;21287;-81
2021/08/04 12:17:23;;;;;;;;;;;;;;;28.76;34.73;100243.90;1700663;84;21221;-80
2021/08/04 12:20:31;;;;;;;2.47;1.10;;;;;;;28.82;34.33;100232.84;1699187;84;20214;-80
2021/08/04 12:23:37;;;;;;;1.62;1.35;;;;;;;28.94;34.54;100241.72;1699177;84;21225;-81
2021/08/04 12:26:53;;;;;;;2.55;1.12;;;;;;;28.94;34.54;100241.72;1717663;83;21144;-81
2021/08/04 12:30:16;;;;;;;2.50;1.37;;;;;;;28.99;34.92;100237.45;1734619;82;21230;-81
2021/08/04 12:33:23;;;;;;;2.05;1.27;;;;;;;28.99;34.56;100240.84;1735780;82;21280;-81
2021/08/04 12:36:35;;;;;;;3.55;1.50;;;;;;;28.97;34.49;100242.53;1738055;82;21720;-81
2021/08/04 12:39:38;;;;;;;2.55;1.27;;;;;;;28.86;34.02;100236.73;1714958;83;21180;-81
2021/08/04 12:42:44;;;;;;;3.80;1.40;;;;;;;28.78;34.79;100235.41;1747103;82;21735;-81
2021/08/04 12:45:55;;;;;;;5.28;1.30;;;;;;;28.81;34.81;100233.16;1705953;83;21835;-81
2021/08/04 12:49:00;;;;;;;3.05;1.15;;;;;;;28.84;34.63;100224.92;1734806;82;21342;-82
2021/08/04 12:52:06;;;;;;;2.25;1.02;;;;;;;28.84;34.63;100224.92;1733508;82;21732;-81
2021/08/04 12:55:20;;;;;;;3.05;1.37;;;;;;;28.96;35.21;100222.56;1719686;83;21737;-82
2021/08/04 12:58:26;;;;;;;5.25;1.30;;;;;;;29.02;35.31;100217.13;1698692;84;21320;-81
2021/08/04 13:01:35;;;;;;;2.80;1.10;;;;;;;29.05;34.19;100221.33;1725792;82;21367;-80
2021/08/04 13:04:42;;;;;;;5.08;1.12;;;;;;;29.03;33.12;100219.40;1739802;82;21283;-81
2021/08/04 13:07:49;;;;;;;8.13;1.30;;;;;;;28.95;32.62;100216.67;1739748;82;21908;-81
2021/08/04 13:10:56;;;;;;;4.75;1.20;;;;;;;28.88;31.84;100220.95;1733724;82;21137;-81
2021/08/04 13:14:13;;;;;;;1.77;1.20;;;;;;;28.88;31.84;100220.95;1736402;82;21821;-81
2021/08/04 13:17:29;;;;;;;2.50;1.10;;;;;;;28.87;32.68;100209.42;1711555;83;21267;-81
2021/08/04 13:20:42;;;;;;;1.77;1.25;;;;;;;28.89;32.57;100222.61;1740662;82;21720;-81
2021/08/04 13:23:47;;;;;;;4.67;1.22;;;;;;;28.93;31.82;100219.47;1741866;82;21255;-81
2021/08/04 13:26:52;;;;;;;2.52;1.15;;;;;;;28.99;33.16;100217.75;1741759;82;21837;-81
2021/08/04 13:30:00;;;;;;;4.33;1.40;;;;;;;29.03;34.03;100214.60;1703350;84;21200;-81
2021/08/04 13:33:08;;;;;;;1.92;1.27;;;;;;;29.04;33.35;100222.48;1740555;82;21912;-81
2021/08/04 13:36:14;;;;;;;2.37;1.07;;;;;;;29.04;33.35;100222.48;1740633;82;21287;-81
2021/08/04 13:39:19;;;;;;;4.33;1.30;;;;;;;29.00;32.36;100216.60;1704538;84;21231;-82
2021/08/04 13:42:26;;;;;;;4.15;1.40;;;;;;;29.03;33.53;100220.81;1740934;82;21263;-81
2021/08/04 13:45:32;;;;;;;4.10;1.57;;;;;;;29.00;33.98;100227.03;1740795;82;21283;-81
2021/08/04 13:48:38;;;;;;;4.12;1.50;;;;;;;28.97;33.57;100222.83;1705400;84;21314;-81
2021/08/04 13:51:43;;;;;;;2.12;1.10;;;;;;;28.95;34.42;100227.93;1742127;82;21189;-81
2021/08/04 13:54:48;;;;;;;5.55;1.70;;;;;;;28.88;34.44;100227.98;1740382;82;21770;-81
2021/08/04 13:57:55;;;;;;;2.90;1.30;;;;;;;28.78;34.08;100224.15;1705088;84;21196;-81
2021/08/04 14:01:00;;;;;;;4.97;1.20;;;;;;;28.68;32.47;100217.81;1741666;82;21326;-81
2021/08/04 14:04:06;;;;;;;4.03;1.70;;;;;;;28.64;33.14;100221.78;1742236;82;21806;-81
2021/08/04 14:07:13;;;;;;;1.87;1.30;;;;;;;28.63;32.90;100219.28;1733634;82;21196;-81
2021/08/04 14:10:26;;;;;;;4.10;1.55;;;;;;;28.60;32.62;100219.30;1728222;83;21321;-81
2021/08/04 14:13:32;;;;;;;2.33;1.30;;;;;;;28.37;32.11;100221.52;1738907;82;21233;-81
2021/08/04 14:16:38;;;;;;;1.80;1.42;;;;;;;28.37;32.11;100221.52;1739823;82;21875;-81
2021/08/04 14:19:43;;;;;;;3.33;1.00;;;;;;;28.29;32.42;100218.77;1739794;82;21813;-81
2021/08/04 14:22:49;;;;;;;3.58;1.30;;;;;;;28.19;32.87;100216.89;1739303;82;21237;-81
2021/08/04 14:25:54;;;;;;;2.35;1.20;;;;;;;28.19;32.87;100216.89;1738778;82;21717;-81
2021/08/04 14:28:59;;;;;;;3.17;1.40;;;;;;;28.07;33.18;100222.63;1740178;82;21292;-81
2021/08/04 14:32:06;;;;;;;5.80;1.45;;;;;;;27.97;32.67;100219.34;1739887;82;21346;-81